Time;durP1;ratioP1;P1;durP2;ratioP2;P2;SDS_P1;SDS_P2;PMS_P1;PMS_P2;Temp;Humidity;BMP_temperature;BMP_pressure;BME280_temperature;BME280_humidity;BME280_pressure;Samples;Min_cycle;Max_cycle;Signal;HPM_P1;HPM_P2
2022/08/23 00:01:41;;;;;;;7.35;3.60;;;17.10;99.90;;;;;;5031596;28;20484;-66
2022/08/23 00:04:13;;;;;;;11.95;3.72;;;17.00;99.90;;;;;;5021048;28;20408;-67
2022/08/23 00:06:41;;;;;;;4.82;3.55;;;16.90;99.90;;;;;;5011962;28;20524;-65
2022/08/23 00:09:08;;;;;;;3.63;2.95;;;16.80;99.90;;;;;;5014583;28;20042;-65
2022/08/23 00:11:40;;;;;;;5.88;3.40;;;16.80;99.90;;;;;;5014208;28;20041;-65
2022/08/23 00:14:21;;;;;;;3.15;2.85;;;16.80;99.90;;;;;;5033802;28;20048;-65
2022/08/23 00:16:48;;;;;;;6.65;3.40;;;16.70;99.90;;;;;;5035783;28;20106;-65
2022/08/23 00:19:16;;;;;;;4.97;3.70;;;16.70;99.90;;;;;;5035767;28;20080;-65
2022/08/23 00:21:43;;;;;;;7.95;4.18;;;16.60;99.90;;;;;;5017799;28;20487;-65
2022/08/23 00:24:11;;;;;;;7.93;4.10;;;16.60;99.90;;;;;;5018228;28;20034;-65
2022/08/23 00:26:58;;;;;;;6.97;4.55;;;16.90;99.90;;;;;;5035383;28;20041;-65
2022/08/23 00:29:46;;;;;;;6.75;4.63;;;16.80;99.90;;;;;;5017716;28;20060;-66
2022/08/23 00:32:19;;;;;;;6.75;4.20;;;16.60;99.90;;;;;;5035038;28;20514;-65
2022/08/23 00:34:45;;;;;;;6.35;3.20;;;16.80;99.90;;;;;;5001416;28;20052;-65
2022/08/23 00:37:12;;;;;;;5.90;2.60;;;16.60;99.90;;;;;;5017639;28;20057;-65
2022/08/23 00:39:39;;;;;;;3.13;2.70;;;16.40;99.90;;;;;;5035261;28;20064;-65
2022/08/23 00:47:38;;;;;;;7.70;3.58;;;16.20;99.90;;;;;;5035261;28;20059;-65
2022/08/23 00:47:42;;;;;;;7.30;3.78;;;16.30;99.90;;;;;;5017133;28;20065;-65
2022/08/23 00:50:08;;;;;;;6.45;4.57;;;16.20;99.90;;;;;;5023170;28;20160;-65
2022/08/23 00:52:43;;;;;;;8.10;4.50;;;16.10;99.90;;;;;;5032990;28;20116;-65
2022/08/23 00:55:09;;;;;;;5.95;3.88;;;16.30;99.90;;;;;;5035328;28;20044;-65
2022/08/23 00:57:36;;;;;;;12.63;5.40;;;16.30;99.90;;;;;;5035295;28;20034;-65
2022/08/23 01:00:05;;;;;;;4.88;3.53;;;16.30;99.90;;;;;;5034577;28;20038;-65
2022/08/23 01:02:30;;;;;;;5.10;3.13;;;16.30;99.90;;;;;;5017079;28;20052;-65
2022/08/23 01:04:59;;;;;;;5.68;3.55;;;16.00;99.90;;;;;;5016782;28;20419;-65
2022/08/23 01:07:36;;;;;;;4.35;2.60;;;16.10;99.90;;;;;;5034855;28;20052;-65
2022/08/23 01:10:08;;;;;;;6.25;3.75;;;16.10;99.90;;;;;;5034662;28;20565;-65
2022/08/23 01:12:40;;;;;;;4.00;3.25;;;16.00;99.90;;;;;;5034439;28;20095;-65
2022/08/23 01:15:24;;;;;;;3.55;2.55;;;15.90;99.90;;;;;;5016842;28;20059;-65
2022/08/23 01:18:01;;;;;;;6.57;3.07;;;15.80;99.90;;;;;;5034800;28;20045;-65
2022/08/23 01:20:35;;;;;;;5.07;3.75;;;15.90;99.90;;;;;;5029201;28;20045;-65
2022/08/23 01:23:15;;;;;;;6.30;4.18;;;15.90;99.90;;;;;;5026987;28;20048;-65
2022/08/23 01:25:40;;;;;;;7.38;4.38;;;15.80;99.90;;;;;;5019891;28;20038;-65
2022/08/23 01:28:06;;;;;;;5.75;3.83;;;16.00;99.90;;;;;;5034343;28;20052;-65
2022/08/23 01:30:33;;;;;;;5.25;4.15;;;16.10;99.90;;;;;;5034589;28;20119;-65
2022/08/23 01:33:02;;;;;;;3.67;3.13;;;16.30;99.90;;;;;;5013923;28;20498;-65
2022/08/23 01:35:41;;;;;;;4.35;2.95;;;16.00;99.90;;;;;;5034046;28;20037;-66
2022/08/23 01:38:08;;;;;;;5.88;4.20;;;16.10;99.90;;;;;;5016615;28;20395;-65
2022/08/23 01:40:34;;;;;;;5.72;4.45;;;15.90;99.90;;;;;;5034066;28;20046;-65
2022/08/23 01:43:00;;;;;;;9.70;4.63;;;15.90;99.90;;;;;;5016389;28;20492;-65
2022/08/23 01:45:27;;;;;;;4.53;4.05;;;15.90;99.90;;;;;;5034406;28;20048;-65
2022/08/23 01:47:53;;;;;;;4.32;3.33;;;15.90;99.90;;;;;;5022801;28;20049;-65
2022/08/23 01:50:19;;;;;;;5.68;3.65;;;15.60;99.90;;;;;;5015952;28;20400;-65
2022/08/23 01:52:44;;;;;;;5.28;3.03;;;15.70;99.90;;;;;;5033804;28;20034;-66
2022/08/23 01:55:10;;;;;;;3.83;2.95;;;15.70;99.90;;;;;;5016170;28;20036;-65
2022/08/23 01:57:36;;;;;;;3.97;2.88;;;15.50;99.90;;;;;;5034020;28;20175;-65
2022/08/23 02:00:04;;;;;;;4.13;2.85;;;15.60;99.90;;;;;;5028718;28;20037;-65
2022/08/23 02:02:30;;;;;;;4.85;2.40;;;15.50;99.90;;;;;;5025418;28;20049;-65
2022/08/23 02:04:56;;;;;;;8.45;3.83;;;15.60;99.90;;;;;;5014307;28;20099;-65
2022/08/23 02:07:26;;;;;;;4.55;4.00;;;15.70;99.90;;;;;;5033413;28;20045;-65
2022/08/23 02:09:51;;;;;;;3.45;3.08;;;15.70;99.90;;;;;;5034308;28;20091;-64
2022/08/23 02:12:17;;;;;;;1.90;1.70;;;15.60;99.90;;;;;;5033753;28;20501;-65
2022/08/23 02:14:42;;;;;;;3.35;2.38;;;15.70;99.90;;;;;;5033963;28;20064;-65
2022/08/23 02:17:08;;;;;;;3.45;2.60;;;15.50;99.90;;;;;;5033285;28;20136;-65
2022/08/23 02:19:36;;;;;;;5.78;2.75;;;15.30;99.90;;;;;;5033461;28;20041;-65
2022/08/23 02:22:03;;;;;;;5.00;2.78;;;15.30;99.90;;;;;;5033377;28;20088;-65
2022/08/23 02:24:30;;;;;;;7.15;3.58;;;15.20;99.90;;;;;;5015750;28;20045;-64
2022/08/23 02:26:59;;;;;;;8.35;4.95;;;15.30;99.90;;;;;;5033194;28;20045;-65
2022/08/23 02:29:28;;;;;;;9.27;4.28;;;15.20;99.90;;;;;;5015651;28;20037;-65
2022/08/23 02:31:54;;;;;;;13.70;5.50;;;15.40;99.90;;;;;;5015197;28;20041;-65
2022/08/23 02:34:20;;;;;;;7.70;4.30;;;15.40;99.90;;;;;;5033458;28;20494;-65
2022/08/23 02:36:46;;;;;;;6.50;5.28;;;15.50;99.90;;;;;;5032814;28;20120;-65
2022/08/23 02:39:15;;;;;;;5.60;4.30;;;15.50;99.90;;;;;;5033061;28;20033;-65
2022/08/23 02:41:41;;;;;;;4.55;3.60;;;15.40;99.90;;;;;;5033312;28;20399;-64
2022/08/23 02:44:07;;;;;;;8.35;4.75;;;15.40;99.90;;;;;;5033173;28;20037;-65
2022/08/23 02:46:33;;;;;;;4.20;3.03;;;15.30;99.90;;;;;;5032336;28;20503;-65
2022/08/23 02:48:59;;;;;;;3.95;3.28;;;;;;;;;;5015050;28;20097;-65
2022/08/23 02:51:25;;;;;;;5.88;3.25;;;15.00;99.90;;;;;;5015190;28;20041;-65
2022/08/23 02:53:51;;;;;;;12.32;4.32;;;15.30;99.90;;;;;;5015411;28;20037;-64
2022/08/23 02:56:16;;;;;;;4.10;3.22;;;15.20;99.90;;;;;;5033085;28;20510;-64
2022/08/23 02:58:44;;;;;;;3.30;2.75;;;14.90;99.90;;;;;;5032817;28;20038;-65
2022/08/23 03:01:28;;;;;;;3.47;3.03;;;15.00;99.90;;;;;;5014675;28;20040;-64
2022/08/23 03:03:54;;;;;;;3.60;3.28;;;15.00;99.90;;;;;;5032694;28;20072;-64
2022/08/23 03:06:20;;;;;;;58.25;5.43;;;15.10;99.90;;;;;;5014933;28;20049;-65
2022/08/23 03:08:45;;;;;;;6.95;3.78;;;15.00;99.90;;;;;;5032728;28;20607;-64
2022/08/23 03:11:19;;;;;;;55.10;5.80;;;15.10;99.90;;;;;;5032334;28;20049;-65
2022/08/23 03:13:45;;;;;;;12.93;4.10;;;14.90;99.90;;;;;;5015040;28;20056;-65
2022/08/23 03:16:11;;;;;;;2.97;2.60;;;14.90;99.90;;;;;;5032365;28;20116;-65
2022/08/23 03:18:38;;;;;;;2.90;2.58;;;14.80;99.90;;;;;;5032698;28;20211;-64
2022/08/23 03:21:05;;;;;;;4.13;2.50;;;15.00;99.90;;;;;;5014800;28;20091;-65
2022/08/23 03:23:31;;;;;;;3.00;2.70;;;14.90;99.90;;;;;;5032308;28;20045;-65
2022/08/23 03:25:58;;;;;;;4.90;3.42;;;15.00;99.90;;;;;;5032498;28;20041;-65
2022/08/23 03:28:24;;;;;;;22.52;4.10;;;14.90;99.90;;;;;;5014323;28;20060;-64
2022/08/23 03:30:50;;;;;;;45.55;4.75;;;14.90;99.90;;;;;;4998282;28;20081;-64
2022/08/23 03:33:16;;;;;;;21.45;3.65;;;14.90;99.90;;;;;;5032266;28;20475;-65
2022/08/23 03:35:42;;;;;;;7.15;3.20;;;14.90;99.90;;;;;;5032766;28;20062;-64
2022/08/23 03:38:08;;;;;;;3.90;2.72;;;14.90;99.90;;;;;;5032228;28;20041;-65
2022/08/23 03:40:34;;;;;;;3.03;2.60;;;14.80;99.90;;;;;;5014316;28;20053;-65
2022/08/23 03:43:00;;;;;;;3.72;2.55;;;14.70;99.90;;;;;;5031956;28;20039;-65
2022/08/23 03:45:26;;;;;;;2.92;2.10;;;14.90;99.90;;;;;;5014686;28;20124;-64
2022/08/23 03:47:52;;;;;;;27.17;3.75;;;14.80;99.90;;;;;;5004105;28;20499;-64
2022/08/23 03:50:18;;;;;;;30.80;3.30;;;14.70;99.90;;;;;;5018493;28;20040;-65
2022/08/23 03:52:43;;;;;;;19.77;3.13;;;14.70;99.90;;;;;;5036792;28;20095;-64
2022/08/23 03:55:09;;;;;;;3.42;3.13;;;14.50;99.90;;;;;;5036179;28;20056;-65
2022/08/23 03:57:35;;;;;;;3.92;3.53;;;14.50;99.90;;;;;;5035880;28;20083;-65
2022/08/23 04:00:00;;;;;;;4.88;4.00;;;14.40;99.90;;;;;;5036263;28;20160;-64
2022/08/23 04:02:26;;;;;;;46.13;5.32;;;14.40;99.90;;;;;;5001752;28;20057;-64
2022/08/23 04:04:52;;;;;;;6.78;3.33;;;14.60;99.90;;;;;;5018213;28;20063;-64
2022/08/23 04:07:20;;;;;;;13.45;3.00;;;14.40;99.90;;;;;;5035847;28;20049;-65
2022/08/23 04:09:46;;;;;;;6.03;4.15;;;14.40;99.90;;;;;;5018239;28;20499;-64
2022/08/23 04:12:12;;;;;;;4.18;3.63;;;14.40;99.90;;;;;;5035476;28;20029;-65
2022/08/23 04:14:38;;;;;;;5.25;4.05;;;14.60;99.90;;;;;;5018294;28;20501;-64
2022/08/23 04:17:03;;;;;;;4.32;3.10;;;14.70;99.90;;;;;;5035864;28;20069;-64
2022/08/23 04:19:30;;;;;;;4.55;4.15;;;14.40;99.90;;;;;;5036033;28;20069;-64
2022/08/23 04:21:56;;;;;;;5.00;3.50;;;14.50;99.90;;;;;;5035532;28;20109;-65
2022/08/23 04:24:22;;;;;;;4.85;3.20;;;;;;;;;;5035694;28;20041;-65
2022/08/23 04:26:48;;;;;;;5.15;3.65;;;14.40;99.90;;;;;;5017816;28;20049;-65
2022/08/23 04:29:16;;;;;;;4.97;2.80;;;14.60;99.90;;;;;;5035475;28;20033;-64
2022/08/23 04:31:45;;;;;;;2.70;2.50;;;14.50;99.90;;;;;;5035738;28;20034;-65
2022/08/23 04:34:11;;;;;;;3.65;3.35;;;14.50;99.90;;;;;;5017796;28;20558;-64
2022/08/23 04:36:40;;;;;;;4.80;3.83;;;14.40;99.90;;;;;;5035163;28;20499;-65
2022/08/23 04:39:06;;;;;;;4.10;2.40;;;14.00;99.90;;;;;;5035361;28;20041;-64
2022/08/23 04:44:16;;;;;;;3.13;2.83;;;14.20;99.90;;;;;;5022798;28;20046;-64
2022/08/23 04:46:47;;;;;;;5.85;4.32;;;14.20;99.90;;;;;;5035366;28;20034;-64
2022/08/23 04:49:13;;;;;;;3.63;3.30;;;14.00;99.90;;;;;;5035343;28;20151;-65
2022/08/23 04:51:39;;;;;;;6.22;3.85;;;14.10;99.90;;;;;;5017196;28;20045;-65
2022/08/23 04:54:06;;;;;;;8.93;5.60;;;14.20;99.90;;;;;;5034854;28;20037;-65
2022/08/23 04:56:32;;;;;;;8.70;5.13;;;14.40;99.90;;;;;;5035360;28;20033;-64
2022/08/23 04:58:58;;;;;;;6.63;4.95;;;14.50;99.90;;;;;;5035092;28;20040;-64
2022/08/23 05:01:24;;;;;;;6.60;5.13;;;14.30;99.90;;;;;;5034954;28;20120;-64
2022/08/23 05:03:51;;;;;;;9.77;5.95;;;14.30;99.90;;;;;;5034767;28;20061;-65
2022/08/23 05:06:16;;;;;;;6.70;5.65;;;14.50;99.90;;;;;;5016970;28;20045;-65
2022/08/23 05:08:42;;;;;;;7.13;4.45;;;14.50;99.90;;;;;;5017034;28;20137;-65
2022/08/23 05:11:09;;;;;;;5.85;4.80;;;14.70;99.90;;;;;;5034538;28;20072;-65
2022/08/23 05:13:35;;;;;;;9.25;6.57;;;14.70;99.90;;;;;;5034819;28;20522;-64
2022/08/23 05:16:01;;;;;;;10.65;6.38;;;14.80;99.90;;;;;;5017024;28;20080;-65
2022/08/23 05:18:27;;;;;;;8.10;5.60;;;14.60;99.90;;;;;;5016836;28;20041;-65
2022/08/23 05:20:53;;;;;;;11.15;5.50;;;14.80;99.90;;;;;;5016686;28;20084;-64
2022/08/23 05:23:18;;;;;;;11.02;7.35;;;14.70;99.90;;;;;;5034507;28;20052;-64
2022/08/23 05:25:49;;;;;;;10.50;7.97;;;14.90;99.90;;;;;;5034616;28;20197;-64
2022/08/23 05:28:16;;;;;;;11.60;8.57;;;14.80;99.90;;;;;;5034605;28;20045;-65
2022/08/23 05:30:42;;;;;;;12.45;9.10;;;14.90;99.90;;;;;;5016726;28;20048;-65
2022/08/23 05:33:07;;;;;;;12.93;9.38;;;15.10;99.90;;;;;;5034501;28;20045;-66
2022/08/23 05:35:33;;;;;;;11.68;8.05;;;15.20;99.90;;;;;;5034224;28;20037;-65
2022/08/23 05:37:59;;;;;;;15.35;9.68;;;15.30;99.90;;;;;;5016439;28;20046;-65
2022/08/23 05:40:26;;;;;;;15.10;10.10;;;15.10;99.90;;;;;;5034362;28;20045;-65
2022/08/23 05:42:52;;;;;;;15.30;11.60;;;15.50;99.90;;;;;;5034437;28;20041;-65
2022/08/23 05:45:18;;;;;;;22.75;15.13;;;15.60;99.90;;;;;;5034358;28;20045;-65
2022/08/23 05:47:45;;;;;;;22.80;16.48;;;15.60;99.90;;;;;;5034038;28;20048;-65
2022/08/23 05:50:11;;;;;;;18.65;14.88;;;;;;;;;;5016261;28;20046;-65
2022/08/23 05:52:37;;;;;;;20.08;16.20;;;16.10;99.90;;;;;;5033784;28;20071;-65
2022/08/23 05:55:05;;;;;;;21.15;16.38;;;16.00;99.90;;;;;;5000304;28;20056;-65
2022/08/23 05:57:33;;;;;;;20.83;16.02;;;16.10;99.90;;;;;;5016376;28;20124;-65
2022/08/23 05:59:58;;;;;;;21.08;16.27;;;16.10;99.90;;;;;;5016271;28;20045;-66
2022/08/23 06:02:24;;;;;;;22.88;17.00;;;16.50;99.90;;;;;;5033775;28;20042;-66
2022/08/23 06:04:49;;;;;;;19.95;16.00;;;16.60;99.90;;;;;;5033599;28;20136;-66
2022/08/23 06:07:15;;;;;;;20.50;15.43;;;16.80;99.90;;;;;;5033538;28;20046;-65
2022/08/23 06:09:41;;;;;;;20.02;15.02;;;16.60;99.90;;;;;;5033817;28;20048;-65
2022/08/23 06:12:07;;;;;;;19.85;14.90;;;16.80;99.90;;;;;;5015148;28;20042;-65
2022/08/23 06:14:33;;;;;;;19.42;14.32;;;17.10;99.90;;;;;;5033684;28;20220;-66
2022/08/23 06:16:58;;;;;;;21.20;14.20;;;17.20;99.90;;;;;;5015728;28;20052;-65
2022/08/23 06:19:24;;;;;;;19.33;14.43;;;17.10;99.90;;;;;;5033583;28;20049;-65
2022/08/23 06:21:50;;;;;;;16.08;13.07;;;17.30;99.90;;;;;;5033333;28;20073;-66
2022/08/23 06:24:16;;;;;;;16.75;13.52;;;17.30;99.90;;;;;;5015539;28;20045;-65
2022/08/23 06:26:44;;;;;;;16.13;13.55;;;17.50;99.90;;;;;;5032843;28;20034;-67
2022/08/23 06:29:12;;;;;;;16.13;12.73;;;17.50;99.90;;;;;;5015955;28;20099;-66
2022/08/23 06:31:44;;;;;;;16.20;13.27;;;17.70;99.90;;;;;;5033111;28;20049;-67
2022/08/23 06:34:12;;;;;;;17.45;13.02;;;18.00;99.90;;;;;;5014595;28;20051;-66
2022/08/23 06:36:38;;;;;;;18.40;12.32;;;18.10;99.90;;;;;;5014899;28;20029;-67
2022/08/23 06:39:06;;;;;;;13.52;11.48;;;18.30;99.90;;;;;;5028139;28;20041;-67
2022/08/23 06:41:32;;;;;;;17.55;11.30;;;18.30;99.90;;;;;;5005111;28;20061;-67
2022/08/23 06:43:58;;;;;;;13.13;11.48;;;18.50;99.90;;;;;;5032285;28;20501;-67
2022/08/23 06:46:26;;;;;;;12.75;10.57;;;18.80;99.90;;;;;;5033291;28;20033;-67
2022/08/23 06:48:52;;;;;;;12.23;10.07;;;18.80;99.90;;;;;;5029084;28;20077;-67
2022/08/23 06:51:21;;;;;;;12.95;10.00;;;19.00;99.90;;;;;;5033358;28;20120;-67
2022/08/23 06:53:47;;;;;;;11.98;9.45;;;18.90;99.90;;;;;;4999421;28;20087;-68
2022/08/23 06:56:13;;;;;;;10.95;9.73;;;19.30;99.90;;;;;;5033090;28;20038;-68
2022/08/23 06:58:39;;;;;;;11.05;8.32;;;19.20;99.90;;;;;;5030148;28;20076;-68
2022/08/23 07:01:28;;;;;;;13.48;8.23;;;19.50;99.90;;;;;;4996093;28;20042;-68
2022/08/23 07:03:54;;;;;;;16.63;8.95;;;19.80;99.90;;;;;;4992535;28;20049;-68
2022/08/23 07:06:24;;;;;;;13.38;8.05;;;19.70;99.90;;;;;;4997602;28;20057;-68
2022/08/23 07:08:50;;;;;;;9.60;8.27;;;19.80;99.90;;;;;;4982604;28;20038;-68
2022/08/23 07:11:17;;;;;;;10.45;7.82;;;19.80;99.90;;;;;;5014067;28;20061;-68
2022/08/23 07:13:43;;;;;;;12.57;7.82;;;20.10;99.90;;;;;;4996870;28;20038;-68
2022/08/23 07:16:09;;;;;;;11.55;7.35;;;20.00;99.90;;;;;;5019299;28;20033;-68
2022/08/23 07:18:34;;;;;;;11.82;7.00;;;20.50;99.90;;;;;;5022338;28;20033;-68
2022/08/23 07:21:02;;;;;;;8.55;6.13;;;20.20;99.90;;;;;;5005706;28;20097;-68
2022/08/23 07:23:33;;;;;;;11.95;6.00;;;20.80;99.90;;;;;;5001815;28;20053;-68
2022/08/23 07:26:05;;;;;;;10.45;5.88;;;20.70;99.90;;;;;;5014249;28;20142;-69
2022/08/23 07:28:31;;;;;;;10.10;6.00;;;22.30;99.90;;;;;;5032078;28;20033;-68
2022/08/23 07:31:22;;;;;;;9.73;5.50;;;20.70;99.90;;;;;;5014065;28;20052;-68
2022/08/23 07:33:49;;;;;;;9.60;5.82;;;20.80;99.90;;;;;;5020993;28;20105;-66
2022/08/23 07:36:17;;;;;;;9.15;5.75;;;21.10;99.90;;;;;;5016946;28;20041;-67
2022/08/23 07:38:44;;;;;;;7.25;5.05;;;21.00;99.90;;;;;;5012981;28;20132;-68
2022/08/23 07:41:10;;;;;;;9.88;5.13;;;20.90;99.90;;;;;;5023320;28;20049;-66
2022/08/23 07:43:36;;;;;;;9.25;5.90;;;21.00;99.90;;;;;;5018883;28;20049;-66
2022/08/23 07:46:02;;;;;;;12.27;5.80;;;20.90;99.90;;;;;;5029897;28;20053;-66
2022/08/23 07:48:28;;;;;;;9.95;5.93;;;21.00;99.90;;;;;;5030564;28;20041;-65
2022/08/23 07:50:56;;;;;;;10.75;7.10;;;21.30;99.90;;;;;;5013414;28;20077;-66
2022/08/23 07:53:23;;;;;;;15.93;6.88;;;21.10;99.90;;;;;;5031150;28;20126;-65
2022/08/23 07:55:48;;;;;;;8.20;6.75;;;21.20;99.90;;;;;;5019574;28;20044;-66
2022/08/23 07:58:14;;;;;;;12.73;6.60;;;21.20;99.90;;;;;;5030856;28;20037;-65
2022/08/23 08:00:40;;;;;;;13.52;6.50;;;21.30;99.90;;;;;;5030691;28;20079;-66
2022/08/23 08:03:05;;;;;;;7.75;6.20;;;21.40;99.90;;;;;;5030865;28;20056;-67
2022/08/23 08:05:32;;;;;;;11.18;5.43;;;21.50;99.90;;;;;;5030510;28;20042;-69
2022/08/23 08:07:57;;;;;;;7.85;5.20;;;21.40;99.90;;;;;;5030940;28;20037;-69
2022/08/23 08:10:23;;;;;;;12.32;4.90;;;21.70;99.90;;;;;;5013148;28;20056;-69
2022/08/23 08:12:49;;;;;;;13.15;6.55;;;21.70;99.90;;;;;;5013558;28;20095;-68
2022/08/23 08:15:15;;;;;;;10.85;5.80;;;21.60;99.90;;;;;;5030677;28;20039;-68
2022/08/23 08:17:41;;;;;;;8.98;5.38;;;21.70;99.90;;;;;;5030126;28;20052;-68
2022/08/23 08:20:07;;;;;;;7.03;4.90;;;21.70;99.90;;;;;;5030524;28;20037;-68
2022/08/23 08:22:33;;;;;;;10.93;6.32;;;21.70;99.90;;;;;;5011436;28;20434;-68
2022/08/23 08:24:59;;;;;;;6.47;5.05;;;21.90;99.90;;;;;;5005757;28;20045;-68
2022/08/23 08:27:24;;;;;;;7.80;5.38;;;21.80;99.90;;;;;;5001738;28;20065;-68
2022/08/23 08:29:50;;;;;;;7.70;5.22;;;22.10;99.90;;;;;;4998412;28;20156;-68
2022/08/23 08:32:15;;;;;;;6.93;4.97;;;22.20;99.90;;;;;;5014458;28;20048;-69
2022/08/23 08:34:41;;;;;;;6.85;5.05;;;22.50;99.90;;;;;;5000184;28;20045;-67
2022/08/23 08:37:07;;;;;;;10.55;5.18;;;22.60;99.90;;;;;;4999847;28;20052;-68
2022/08/23 08:39:33;;;;;;;6.35;4.72;;;22.60;99.90;;;;;;5024462;28;20045;-68
2022/08/23 08:42:51;;;;;;;10.75;4.90;;;22.70;99.90;;;;;;5033981;28;20041;-68
2022/08/23 08:45:31;;;;;;;8.02;4.40;;;22.50;99.90;;;;;;4983281;28;20454;-69
2022/08/23 08:48:05;;;;;;;7.90;4.53;;;22.80;99.90;;;;;;5014299;28;20515;-68
2022/08/23 08:50:56;;;;;;;9.30;5.05;;;22.90;99.90;;;;;;5014685;28;20041;-67
2022/08/23 08:53:30;;;;;;;7.78;4.80;;;22.80;99.90;;;;;;5016816;28;20049;-67
2022/08/23 08:55:59;;;;;;;7.00;4.85;;;22.80;99.90;;;;;;5033382;28;20110;-67
2022/08/23 08:58:38;;;;;;;9.63;4.22;;;22.80;99.90;;;;;;5014353;28;20057;-69
2022/08/23 09:01:04;;;;;;;8.13;3.35;;;22.90;99.90;;;;;;5015520;28;20510;-69
2022/08/23 09:03:34;;;;;;;7.38;3.80;;;22.70;99.90;;;;;;5032898;28;20073;-69
2022/08/23 09:06:22;;;;;;;6.50;3.70;;;23.00;99.90;;;;;;5015177;28;20158;-68
2022/08/23 09:09:01;;;;;;;6.30;3.83;;;23.20;99.90;;;;;;5032085;28;20092;-69
2022/08/23 09:12:06;;;;;;;8.30;3.33;;;23.20;99.90;;;;;;4998785;28;20534;-68
2022/08/23 09:14:54;;;;;;;6.82;3.15;;;23.50;99.90;;;;;;5014266;28;20045;-69
2022/08/23 09:17:34;;;;;;;5.57;3.13;;;23.80;99.90;;;;;;5013851;28;20091;-69
2022/08/23 09:20:04;;;;;;;7.47;3.20;;;23.80;99.90;;;;;;5015685;28;20582;-68
2022/08/23 09:22:40;;;;;;;6.20;3.08;;;23.80;99.90;;;;;;5014996;28;20041;-68
2022/08/23 09:25:10;;;;;;;7.18;3.00;;;23.80;99.90;;;;;;5032629;28;20113;-68
2022/08/23 09:27:37;;;;;;;6.72;2.70;;;23.90;99.90;;;;;;5022581;28;20117;-67
2022/08/23 09:30:04;;;;;;;11.57;3.88;;;23.90;99.90;;;;;;5031573;28;20037;-68
2022/08/23 09:32:36;;;;;;;7.28;3.15;;;23.90;99.90;;;;;;5014726;28;20048;-68
2022/08/23 09:35:23;;;;;;;6.95;3.25;;;24.00;99.90;;;;;;5032489;28;20034;-68
2022/08/23 09:38:00;;;;;;;8.10;2.83;;;24.20;99.90;;;;;;5015042;28;20052;-68
2022/08/23 09:40:42;;;;;;;4.28;2.60;;;24.30;99.90;;;;;;5015347;28;20049;-68
2022/08/23 09:43:14;;;;;;;5.40;2.92;;;24.60;99.90;;;;;;5031471;28;20450;-67
2022/08/23 09:45:48;;;;;;;7.85;3.13;;;24.50;99.90;;;;;;5032046;28;20073;-67
2022/08/23 09:48:38;;;;;;;8.70;2.70;;;24.60;99.90;;;;;;5015599;28;20079;-67
2022/08/23 09:51:07;;;;;;;5.97;2.67;;;24.80;99.90;;;;;;5014554;28;20041;-69
2022/08/23 09:53:33;;;;;;;5.97;2.67;;;25.30;99.90;;;;;;4999007;28;20415;-67
2022/08/23 09:56:11;;;;;;;3.95;2.60;;;25.10;99.90;;;;;;5032397;28;20091;-67
2022/08/23 09:58:45;;;;;;;8.93;2.30;;;25.30;99.90;;;;;;5032636;28;20391;-67
2022/08/23 10:01:21;;;;;;;4.03;2.85;;;25.30;99.90;;;;;;5032804;28;20057;-68
2022/08/23 10:04:13;;;;;;;5.28;1.98;;;25.60;99.90;;;;;;5032406;28;20068;-68
2022/08/23 10:06:40;;;;;;;6.72;2.45;;;25.50;99.90;;;;;;5014410;28;20092;-67
2022/08/23 10:09:08;;;;;;;5.00;2.45;;;27.00;99.90;;;;;;5016381;28;20410;-67
2022/08/23 10:11:39;;;;;;;5.25;2.35;;;25.60;99.90;;;;;;5016222;28;20454;-68
2022/08/23 10:14:05;;;;;;;6.25;2.22;;;26.00;99.90;;;;;;5032655;28;20041;-68
2022/08/23 10:16:54;;;;;;;11.25;3.47;;;26.00;99.90;;;;;;5032008;28;20095;-67
2022/08/23 10:19:30;;;;;;;6.22;3.00;;;25.70;99.90;;;;;;5018965;28;20411;-67
2022/08/23 10:22:08;;;;;;;7.55;2.72;;;25.90;99.90;;;;;;4993660;28;20422;-67
2022/08/23 10:24:52;;;;;;;5.10;2.20;;;25.90;99.90;;;;;;5017390;28;20118;-67
2022/08/23 10:30:11;;;;;;;7.20;2.87;;;25.90;99.90;;;;;;5013949;28;20124;-69
2022/08/23 10:32:43;;;;;;;;;;;26.00;99.90;;;;;;5015669;28;20050;-67
2022/08/23 10:35:36;;;;;;;5.90;2.42;;;25.90;99.90;;;;;;5013254;28;20410;-67
2022/08/23 10:38:39;;;;;;;4.80;2.50;;;26.20;99.90;;;;;;5013579;28;20049;-65
2022/08/23 10:41:32;;;;;;;7.13;2.53;;;25.90;99.90;;;;;;5029190;28;20048;-65
2022/08/23 10:44:40;;;;;;;10.38;3.13;;;26.00;99.90;;;;;;5015407;28;20053;-65
2022/08/23 10:47:21;;;;;;;4.95;2.70;;;26.10;99.90;;;;;;5030720;28;20045;-65
2022/08/23 10:49:51;;;;;;;6.07;2.50;;;25.90;99.90;;;;;;5013651;28;20542;-66
2022/08/23 10:52:22;;;;;;;6.72;1.90;;;26.20;99.90;;;;;;5031323;28;20120;-65
2022/08/23 10:55:15;;;;;;;6.03;2.42;;;26.10;99.90;;;;;;5011459;28;20050;-65
2022/08/23 10:57:42;;;;;;;6.80;1.95;;;26.10;99.90;;;;;;5013007;28;20117;-65
2022/08/23 11:00:14;;;;;;;4.18;1.80;;;26.50;99.90;;;;;;5031192;28;20072;-65
2022/08/23 11:02:57;;;;;;;5.50;1.90;;;26.40;99.90;;;;;;5011236;28;20120;-67
2022/08/23 11:05:29;;;;;;;6.50;2.40;;;26.00;99.90;;;;;;5013001;28;20057;-65
2022/08/23 11:08:10;;;;;;;4.88;1.60;;;26.50;99.90;;;;;;5014356;28;20048;-65
2022/08/23 11:10:38;;;;;;;4.63;1.60;;;26.50;99.90;;;;;;5029881;28;20495;-66
2022/08/23 11:13:10;;;;;;;6.00;2.10;;;26.20;99.90;;;;;;5030059;28;20083;-66
2022/08/23 11:15:54;;;;;;;9.45;1.90;;;26.40;99.90;;;;;;5012700;28;20045;-65
2022/08/23 11:18:37;;;;;;;7.40;3.00;;;26.50;99.90;;;;;;5030719;28;20091;-65
2022/08/23 11:21:17;;;;;;;7.43;2.08;;;26.50;99.90;;;;;;5030495;28;20083;-66
2022/08/23 11:23:46;;;;;;;4.28;1.63;;;26.30;99.90;;;;;;5030277;28;20044;-65
2022/08/23 11:26:38;;;;;;;6.78;1.95;;;26.60;99.90;;;;;;5000265;28;20046;-65
2022/08/23 11:29:09;;;;;;;4.97;1.80;;;26.50;99.90;;;;;;4976738;28;20054;-66
2022/08/23 11:31:43;;;;;;;4.03;1.88;;;26.50;99.90;;;;;;4997620;28;20135;-66
2022/08/23 11:34:22;;;;;;;3.63;1.92;;;26.50;99.90;;;;;;5008008;28;20045;-65
2022/08/23 11:37:19;;;;;;;5.07;1.55;;;26.60;99.90;;;;;;5020137;28;20045;-65
2022/08/23 11:39:56;;;;;;;5.75;1.45;;;26.50;99.90;;;;;;5010820;28;20121;-67
2022/08/23 11:42:38;;;;;;;8.68;1.90;;;27.00;99.90;;;;;;4992921;28;20466;-66
2022/08/23 11:45:39;;;;;;;6.13;1.60;;;26.60;99.90;;;;;;5028764;28;20080;-67
2022/08/23 11:48:05;;;;;;;4.88;1.45;;;27.40;99.90;;;;;;5006375;28;20049;-66
2022/08/23 11:51:06;;;;;;;3.28;1.15;;;27.10;99.90;;;;;;5029809;28;20439;-66
2022/08/23 11:53:31;;;;;;;6.35;1.40;;;26.80;99.90;;;;;;5006466;28;20382;-66
2022/08/23 11:56:09;;;;;;;4.60;1.58;;;28.20;99.90;;;;;;5015331;28;20571;-66
2022/08/23 11:58:52;;;;;;;16.63;1.60;;;27.00;99.90;;;;;;5010888;28;20053;-67
2022/08/23 12:01:31;;;;;;;5.78;1.67;;;27.10;99.90;;;;;;5003550;28;20462;-66
2022/08/23 12:04:13;;;;;;;5.50;1.30;;;27.40;99.90;;;;;;5019746;28;20065;-65
2022/08/23 12:06:48;;;;;;;10.98;1.67;;;27.10;99.90;;;;;;5012123;28;20124;-67
2022/08/23 12:09:23;;;;;;;5.22;1.33;;;26.90;99.90;;;;;;5010140;28;20076;-66
2022/08/23 12:11:54;;;;;;;7.40;1.55;;;27.10;99.90;;;;;;5018009;28;20029;-67
2022/08/23 12:14:39;;;;;;;4.72;1.40;;;27.50;99.90;;;;;;5016600;28;20049;-67
2022/08/23 12:17:24;;;;;;;4.68;2.05;;;27.50;99.90;;;;;;5021448;28;20041;-65
2022/08/23 12:19:56;;;;;;;4.63;1.42;;;27.30;99.90;;;;;;5024397;28;20045;-66
2022/08/23 12:22:28;;;;;;;8.00;1.90;;;27.30;99.90;;;;;;5025408;28;20033;-66
2022/08/23 12:25:04;;;;;;;4.85;1.10;;;27.50;99.90;;;;;;5015628;28;20048;-66
2022/08/23 12:27:47;;;;;;;4.85;1.65;;;27.70;99.90;;;;;;5017816;28;20487;-66
2022/08/23 12:30:32;;;;;;;3.80;1.10;;;27.50;99.90;;;;;;5013981;28;20045;-66
2022/08/23 12:33:07;;;;;;;4.25;1.20;;;27.50;99.90;;;;;;5012148;28;20041;-66
2022/08/23 12:35:48;;;;;;;4.90;1.90;;;27.50;99.90;;;;;;5016644;28;20077;-66
2022/08/23 12:38:29;;;;;;;6.07;1.80;;;27.60;99.90;;;;;;5009550;28;20045;-66
2022/08/23 12:40:54;;;;;;;4.10;1.35;;;27.70;99.90;;;;;;5018444;28;20108;-66
2022/08/23 12:43:29;;;;;;;4.18;1.67;;;27.60;99.90;;;;;;5000826;28;20125;-66
2022/08/23 12:46:00;;;;;;;4.72;1.60;;;27.70;99.90;;;;;;5013238;28;20041;-65
2022/08/23 12:48:32;;;;;;;5.63;1.48;;;27.80;99.90;;;;;;5020622;28;20424;-66
2022/08/23 12:51:07;;;;;;;7.55;1.85;;;27.80;99.90;;;;;;5017671;28;20132;-66
2022/08/23 12:53:37;;;;;;;7.07;1.77;;;27.90;99.90;;;;;;5026890;28;20041;-66
2022/08/23 12:56:13;;;;;;;6.22;1.90;;;27.70;99.90;;;;;;5015568;28;20037;-65
2022/08/23 12:58:44;;;;;;;8.25;1.75;;;27.70;99.90;;;;;;5015469;28;20539;-66
2022/08/23 13:01:29;;;;;;;9.35;1.75;;;28.80;99.90;;;;;;5015576;28;20052;-65
2022/08/23 13:04:02;;;;;;;5.22;1.63;;;27.70;99.90;;;;;;5033020;28;20041;-66
2022/08/23 13:06:37;;;;;;;6.32;1.70;;;27.90;99.90;;;;;;5015366;28;20107;-66
2022/08/23 13:09:13;;;;;;;4.43;1.70;;;27.60;99.90;;;;;;5016990;28;20047;-66
2022/08/23 13:11:42;;;;;;;6.05;2.22;;;27.80;99.90;;;;;;5022229;28;20499;-66
2022/08/23 13:14:42;;;;;;;6.03;1.80;;;29.00;99.90;;;;;;5033413;28;20036;-67